Time;durP1;ratioP1;P1;durP2;ratioP2;P2;SDS_P1;SDS_P2;PMS_P1;PMS_P2;Temp;Humidity;BMP_temperature;BMP_pressure;BME280_temperature;BME280_humidity;BME280_pressure;Samples;Min_cycle;Max_cycle;Signal;HPM_P1;HPM_P2
2023/01/11 00:00:25;;;;;;;1.70;1.10;;;;;;;1.61;39.38;92828.25;5031250;28;20095;-78
2023/01/11 00:02:59;;;;;;;1.15;0.90;;;;;;;1.59;39.05;92823.28;5029638;28;20037;-78
2023/01/11 00:05:24;;;;;;;1.17;0.82;;;;;;;1.61;39.10;92823.84;5030717;28;20507;-77
2023/01/11 00:07:51;;;;;;;1.40;1.00;;;;;;;1.64;38.80;92822.63;5033306;28;20068;-77
2023/01/11 00:10:17;;;;;;;2.58;0.88;;;;;;;1.65;38.94;92816.47;5034011;28;20029;-78
2023/01/11 00:12:43;;;;;;;2.28;0.95;;;;;;;1.64;39.21;92823.44;5034387;28;20092;-78
2023/01/11 00:15:09;;;;;;;1.23;0.80;;;;;;;1.63;39.22;92824.44;5033953;28;20037;-78
2023/01/11 00:17:35;;;;;;;0.70;0.70;;;;;;;1.61;39.18;92815.34;5034567;28;20037;-77
2023/01/11 00:20:19;;;;;;;1.15;0.70;;;;;;;1.63;38.01;92821.84;5034756;28;20099;-78
2023/01/11 00:22:45;;;;;;;1.30;0.70;;;;;;;1.63;38.04;92816.69;5031966;28;20047;-77
2023/01/11 00:25:12;;;;;;;1.15;0.80;;;;;;;1.64;37.99;92814.88;5018253;28;20041;-78
2023/01/11 00:27:38;;;;;;;0.73;0.63;;;;;;;1.64;37.83;92813.13;5015649;28;20385;-78
2023/01/11 00:30:04;;;;;;;0.70;0.70;;;;;;;1.62;38.59;92816.91;5015412;28;20029;-78
2023/01/11 00:32:30;;;;;;;0.77;0.70;;;;;;;1.56;39.21;92818.59;5031698;28;20128;-78
2023/01/11 00:34:57;;;;;;;0.95;0.73;;;;;;;1.56;39.49;92826.31;5032714;28;20029;-78
2023/01/11 00:37:23;;;;;;;1.10;0.80;;;;;;;1.56;39.99;92828.13;5034334;28;20048;-77
2023/01/11 00:39:48;;;;;;;2.47;0.80;;;;;;;1.56;39.22;92828.91;5034207;28;20404;-78
2023/01/11 00:47:57;;;;;;;0.70;0.70;;;;;;;1.54;39.94;92817.25;5027057;28;20149;-78
2023/01/11 00:50:28;;;;;;;0.80;0.80;;;;;;;1.54;40.31;92820.59;5016551;28;20080;-77
2023/01/11 00:52:54;;;;;;;0.85;0.70;;;;;;;1.54;39.98;92814.66;5034434;28;20029;-78
2023/01/11 00:55:19;;;;;;;0.60;0.60;;;;;;;1.53;38.82;92813.06;5034649;28;20380;-78
2023/01/11 00:57:45;;;;;;;1.45;0.70;;;;;;;1.51;39.01;92809.94;5034824;28;20047;-78
2023/01/11 01:00:12;;;;;;;0.85;0.60;;;;;;;1.44;39.50;92805.69;5034809;28;20120;-77
2023/01/11 01:02:37;;;;;;;1.10;0.80;;;;;;;1.44;39.80;92800.50;5032610;28;20395;-78
2023/01/11 01:05:03;;;;;;;1.00;0.90;;;;;;;1.42;39.45;92804.34;5030319;28;20034;-78
2023/01/11 01:07:28;;;;;;;0.70;0.70;;;;;;;1.43;38.44;92804.09;5013299;28;20404;-77
2023/01/11 01:09:56;;;;;;;1.83;1.02;;;;;;;1.43;38.59;92798.16;5018608;28;20120;-77
2023/01/11 01:15:07;;;;;;;0.70;0.70;;;;;;;1.43;38.45;92803.31;5033147;28;20033;-78
2023/01/11 01:17:32;;;;;;;0.80;0.80;;;;;;;1.45;38.79;92806.47;5033654;28;20030;-77
2023/01/11 01:19:58;;;;;;;0.80;0.80;;;;;;;1.47;38.95;92798.50;5033471;28;20033;-78
2023/01/11 01:22:23;;;;;;;0.77;0.70;;;;;;;1.49;39.08;92794.69;5033763;28;20041;-77
2023/01/11 01:24:49;;;;;;;0.73;0.70;;;;;;;1.50;38.38;92790.31;5033740;28;20041;-78
2023/01/11 01:27:18;;;;;;;0.95;0.60;;;;;;;1.53;37.02;92789.84;5032798;28;20030;-78
2023/01/11 01:29:44;;;;;;;1.75;0.70;;;;;;;1.81;37.26;92787.41;5032241;28;20060;-78
2023/01/11 01:32:10;;;;;;;0.70;0.70;;;;;;;1.69;38.48;92781.47;5032779;28;20483;-78
2023/01/11 01:34:36;;;;;;;0.70;0.70;;;;;;;1.67;37.51;92791.22;5033916;28;20029;-78
2023/01/11 01:37:06;;;;;;;0.75;0.70;;;;;;;1.70;37.88;92798.50;5033134;28;20091;-77
2023/01/11 01:39:33;;;;;;;1.05;0.60;;;;;;;1.66;38.20;92793.00;5033638;28;20029;-77
2023/01/11 01:41:59;;;;;;;0.55;0.55;;;;;;;1.63;37.56;92787.53;5033582;28;20060;-78
2023/01/11 01:45:01;;;;;;;0.73;0.73;;;;;;;1.59;38.12;92788.97;5033204;28;20049;-78
2023/01/11 01:47:59;;;;;;;0.87;0.80;;;;;;;1.55;38.25;92787.84;5013009;28;20492;-77
2023/01/11 01:50:30;;;;;;;0.80;0.80;;;;;;;1.55;38.31;92793.78;5013668;28;20287;-77
2023/01/11 01:53:03;;;;;;;1.27;0.90;;;;;;;1.53;38.29;92787.28;5013681;28;20060;-78
2023/01/11 01:55:34;;;;;;;2.15;0.73;;;;;;;1.51;38.75;92789.28;5013518;28;20029;-78
2023/01/11 01:58:03;;;;;;;0.65;0.65;;;;;;;1.50;38.44;92791.09;5013372;28;20073;-78
2023/01/11 02:00:29;;;;;;;1.00;0.77;;;;;;;1.47;38.64;92798.50;5013399;28;20030;-77
2023/01/11 02:02:57;;;;;;;1.10;0.77;;;;;;;1.43;37.81;92798.94;5013266;28;20044;-76
2023/01/11 02:05:23;;;;;;;1.52;0.90;;;;;;;1.41;38.56;92798.38;5014400;28;20036;-77
2023/01/11 02:07:50;;;;;;;0.70;0.70;;;;;;;1.40;38.96;92790.88;5031229;28;20029;-77
2023/01/11 02:10:19;;;;;;;1.75;0.77;;;;;;;1.45;38.66;92796.91;5032497;28;20061;-77
2023/01/11 02:12:54;;;;;;;0.90;0.85;;;;;;;1.45;38.58;92796.13;5032161;28;20491;-78
2023/01/11 02:15:21;;;;;;;1.13;0.85;;;;;;;1.43;38.19;92793.00;5030987;28;20411;-77
2023/01/11 02:17:48;;;;;;;0.70;0.70;;;;;;;1.41;39.49;92795.78;5012861;28;20041;-77
2023/01/11 02:20:24;;;;;;;0.77;0.70;;;;;;;1.35;39.66;92781.22;4995375;28;20030;-77
2023/01/11 02:23:02;;;;;;;0.57;0.57;;;;;;;1.37;39.72;92792.06;5012464;28;20033;-77
2023/01/11 02:25:46;;;;;;;1.40;0.80;;;;;;;1.36;39.44;92787.16;5012832;28;20038;-77
2023/01/11 02:28:15;;;;;;;0.70;0.70;;;;;;;1.34;40.74;92795.09;5031717;28;20065;-77
2023/01/11 02:31:01;;;;;;;0.98;0.77;;;;;;;1.32;40.64;92791.97;5032146;28;20025;-77
2023/01/11 02:34:11;;;;;;;0.60;0.60;;;;;;;1.31;40.70;92790.41;5031127;28;20484;-77
2023/01/11 02:36:53;;;;;;;0.80;0.70;;;;;;;1.31;40.14;92784.47;5025091;28;20045;-77
2023/01/11 02:39:51;;;;;;;0.95;0.90;;;;;;;1.32;40.26;92783.44;5032293;28;20514;-77
2023/01/11 02:45:50;;;;;;;0.70;0.70;;;;;;;1.41;41.40;92775.16;5031203;28;20450;-77
2023/01/11 02:48:44;;;;;;;0.98;0.70;;;;;;;1.36;41.53;92769.88;5012056;28;20054;-77
2023/01/11 02:51:16;;;;;;;2.42;1.00;;;;;;;1.34;42.31;92769.31;5027240;28;20034;-77
2023/01/11 02:53:51;;;;;;;0.70;0.70;;;;;;;1.33;41.74;92757.44;5012503;28;20029;-78
2023/01/11 02:56:23;;;;;;;1.67;1.08;;;;;;;1.33;41.29;92756.63;5011239;28;20587;-78
2023/01/11 02:58:52;;;;;;;1.30;0.93;;;;;;;1.36;41.16;92761.34;5012484;28;20435;-78
2023/01/11 03:01:21;;;;;;;1.45;0.90;;;;;;;1.37;41.20;92755.94;5017632;28;20103;-77
2023/01/11 03:03:48;;;;;;;0.73;0.70;;;;;;;1.40;41.13;92763.25;5030615;28;20095;-77
2023/01/11 03:06:34;;;;;;;2.97;1.15;;;;;;;1.39;41.32;92758.31;5029905;28;20055;-77
2023/01/11 03:09:29;;;;;;;1.27;0.90;;;;;;;1.39;40.99;92756.53;5031926;28;20038;-77
2023/01/11 03:15:02;;;;;;;0.80;0.80;;;;;;;1.44;40.45;92754.06;5031874;28;20064;-77
2023/01/11 03:17:27;;;;;;;0.80;0.80;;;;;;;1.44;40.42;92764.41;5028418;28;20339;-77
2023/01/11 03:20:08;;;;;;;1.55;0.80;;;;;;;1.43;40.40;92764.63;5030694;28;20060;-77
2023/01/11 03:22:55;;;;;;;1.70;0.90;;;;;;;1.44;40.17;92759.25;5031474;28;20091;-78
2023/01/11 03:25:46;;;;;;;2.20;1.00;;;;;;;1.42;40.59;92758.69;5014070;28;20029;-77
2023/01/11 03:28:53;;;;;;;1.38;0.85;;;;;;;1.44;40.82;92759.25;5027469;28;20037;-77
2023/01/11 03:31:31;;;;;;;1.00;0.77;;;;;;;1.46;40.33;92751.25;5010823;28;20045;-78
2023/01/11 03:34:18;;;;;;;0.80;0.80;;;;;;;1.46;40.89;92756.41;5031378;28;20132;-77
2023/01/11 03:37:08;;;;;;;0.95;0.80;;;;;;;1.42;41.13;92758.69;5031616;28;20034;-78
2023/01/11 03:39:45;;;;;;;0.80;0.80;;;;;;;1.38;41.96;92759.34;5030691;28;20120;-77
2023/01/11 03:42:18;;;;;;;1.08;0.80;;;;;;;1.37;41.45;92762.91;5035232;28;20033;-78
2023/01/11 03:44:47;;;;;;;1.27;0.80;;;;;;;1.35;40.95;92762.34;5035589;28;20498;-78
2023/01/11 03:47:17;;;;;;;1.50;0.98;;;;;;;1.31;41.38;92750.94;5034961;28;20029;-77
2023/01/11 03:49:50;;;;;;;0.82;0.80;;;;;;;1.34;41.48;92755.63;5033482;28;20064;-78
2023/01/11 03:52:24;;;;;;;0.77;0.77;;;;;;;1.33;41.50;92747.13;5035623;28;20151;-77
2023/01/11 03:54:53;;;;;;;1.33;1.00;;;;;;;1.34;41.92;92747.91;5035509;28;20064;-77
2023/01/11 03:57:22;;;;;;;0.90;0.90;;;;;;;1.36;42.25;92754.41;5035732;28;20025;-77
2023/01/11 03:59:50;;;;;;;1.38;0.85;;;;;;;1.35;41.53;92752.03;5030774;28;20411;-78
2023/01/11 04:02:21;;;;;;;5.50;1.05;;;;;;;1.34;41.12;92755.63;5015601;28;20141;-78
2023/01/11 04:04:47;;;;;;;1.27;0.85;;;;;;;1.34;40.64;92753.06;5030790;28;20484;-77
2023/01/11 04:07:13;;;;;;;1.27;0.85;;;;;;;1.34;40.35;92753.84;5034797;28;20030;-78
2023/01/11 04:09:38;;;;;;;1.48;0.90;;;;;;;1.35;40.36;92754.59;5035069;28;20041;-77
2023/01/11 04:12:05;;;;;;;0.95;0.82;;;;;;;1.34;40.15;92746.09;5035099;28;20167;-78
2023/01/11 04:14:30;;;;;;;3.20;0.85;;;;;;;1.47;37.71;92742.53;5033347;28;20033;-77
2023/01/11 04:16:56;;;;;;;0.80;0.80;;;;;;;1.55;39.06;92739.59;5033805;28;20412;-78
2023/01/11 04:19:22;;;;;;;0.80;0.77;;;;;;;1.63;38.96;92741.06;5033406;28;20403;-77
2023/01/11 04:21:48;;;;;;;0.75;0.75;;;;;;;1.69;39.10;92734.22;5033689;28;20033;-77
2023/01/11 04:24:14;;;;;;;0.93;0.70;;;;;;;1.68;40.26;92733.44;5032947;28;20037;-77
2023/01/11 04:26:40;;;;;;;1.00;0.80;;;;;;;1.69;40.93;92731.63;5034631;28;20045;-77
2023/01/11 04:29:06;;;;;;;1.23;0.85;;;;;;;1.67;41.44;92731.88;5034446;28;20112;-77
2023/01/11 04:31:32;;;;;;;0.70;0.70;;;;;;;1.66;41.84;92722.53;5034521;28;20053;-78
2023/01/11 04:33:57;;;;;;;0.50;0.50;;;;;;;1.66;42.13;92719.97;5032259;28;20033;-77
2023/01/11 04:36:24;;;;;;;0.57;0.57;;;;;;;1.66;41.86;92717.38;5034610;28;20029;-77
2023/01/11 04:38:50;;;;;;;0.70;0.70;;;;;;;1.67;42.45;92716.38;5033099;28;20097;-76
2023/01/11 04:44:00;;;;;;;1.58;1.00;;;;;;;1.66;42.03;92715.56;5031672;28;20124;-78
2023/01/11 04:46:26;;;;;;;0.85;0.60;;;;;;;1.70;41.21;92723.66;5013411;28;20446;-77
2023/01/11 04:48:52;;;;;;;0.85;0.60;;;;;;;1.76;40.26;92717.59;5016231;28;20259;-78
2023/01/11 04:51:19;;;;;;;0.88;0.73;;;;;;;1.78;40.70;92715.59;5033815;28;20450;-77
2023/01/11 04:53:46;;;;;;;0.60;0.60;;;;;;;1.80;40.70;92711.00;5034252;28;20033;-78
2023/01/11 04:56:12;;;;;;;1.35;0.65;;;;;;;1.81;40.78;92707.38;5033323;28;20044;-78
2023/01/11 04:58:38;;;;;;;0.90;0.90;;;;;;;1.85;41.12;92711.09;5033343;28;20435;-77
2023/01/11 05:01:11;;;;;;;0.88;0.70;;;;;;;1.87;41.03;92716.81;5034698;28;20022;-78
2023/01/11 05:03:37;;;;;;;0.50;0.50;;;;;;;1.91;40.58;92708.59;5033056;28;20037;-77
2023/01/11 05:06:03;;;;;;;1.17;0.65;;;;;;;1.95;41.05;92709.72;5014317;28;20044;-77
2023/01/11 05:08:29;;;;;;;0.98;0.70;;;;;;;1.96;41.27;92700.94;5013091;28;20026;-77
2023/01/11 05:10:59;;;;;;;0.70;0.70;;;;;;;1.97;41.08;92705.13;5013955;28;20040;-77
2023/01/11 05:13:43;;;;;;;2.30;0.80;;;;;;;1.99;40.58;92705.69;5030595;28;20041;-77
2023/01/11 05:16:18;;;;;;;1.15;0.80;;;;;;;1.98;40.80;92709.25;5030534;28;20076;-78
2023/01/11 05:18:50;;;;;;;1.83;0.63;;;;;;;1.94;42.08;92708.94;5033651;28;20095;-78
2023/01/11 05:21:17;;;;;;;;;;;;;;;1.91;42.26;92716.34;5033186;28;20033;-77
2023/01/11 05:23:43;;;;;;;0.55;0.50;;;;;;;1.87;42.38;92721.19;5033741;28;19935;-77
2023/01/11 05:26:14;;;;;;;0.80;0.70;;;;;;;1.81;43.09;92707.38;5033307;28;20128;-77
2023/01/11 05:28:40;;;;;;;1.08;0.82;;;;;;;1.77;43.21;92702.91;5033315;28;20041;-78
2023/01/11 05:31:05;;;;;;;0.50;0.50;;;;;;;1.73;43.80;92702.56;5033647;28;20083;-78
2023/01/11 05:33:31;;;;;;;0.70;0.70;;;;;;;1.71;43.96;92704.56;5032150;28;20041;-78
2023/01/11 05:36:03;;;;;;;1.00;0.90;;;;;;;1.68;43.36;92705.03;5032766;28;20033;-78
2023/01/11 05:38:29;;;;;;;1.15;0.80;;;;;;;1.65;43.00;92706.28;5032219;28;20037;-77
2023/01/11 05:41:00;;;;;;;1.20;0.73;;;;;;;1.61;43.03;92701.78;5032915;28;20104;-77
2023/01/11 05:43:27;;;;;;;1.02;0.90;;;;;;;1.57;42.62;92690.34;5031876;28;20041;-77
2023/01/11 05:45:53;;;;;;;0.98;0.70;;;;;;;1.59;42.84;92698.66;5029288;28;20040;-78
2023/01/11 05:48:19;;;;;;;1.05;0.60;;;;;;;1.58;42.91;92702.25;5029561;28;20446;-77
2023/01/11 05:50:55;;;;;;;0.77;0.77;;;;;;;1.58;42.55;92707.41;5031832;28;20038;-78
2023/01/11 05:53:22;;;;;;;0.68;0.63;;;;;;;1.61;39.71;92712.13;5031970;28;20026;-78
2023/01/11 05:55:56;;;;;;;2.40;0.70;;;;;;;1.62;39.37;92704.16;5035379;28;20503;-76
2023/01/11 05:58:24;;;;;;;0.63;0.63;;;;;;;1.64;40.20;92711.66;5033104;28;20030;-77
2023/01/11 06:00:50;;;;;;;0.50;0.50;;;;;;;1.65;40.49;92718.41;5031570;28;20483;-79
2023/01/11 06:03:16;;;;;;;0.70;0.70;;;;;;;1.64;40.96;92721.97;5030016;28;20036;-80
2023/01/11 06:05:42;;;;;;;0.60;0.60;;;;;;;1.62;41.17;92717.06;5034673;28;20033;-80
2023/01/11 06:08:08;;;;;;;0.85;0.70;;;;;;;1.59;42.01;92721.88;5029329;28;20093;-78
2023/01/11 06:10:35;;;;;;;0.60;0.60;;;;;;;1.61;43.63;92722.44;5034556;28;20045;-79
2023/01/11 06:15:45;;;;;;;2.28;0.80;;;;;;;1.63;44.07;92707.53;5040265;28;20045;-77
2023/01/11 06:18:10;;;;;;;1.40;0.65;;;;;;;1.59;44.22;92709.75;5044805;28;20068;-79
2023/01/11 06:20:36;;;;;;;1.50;0.77;;;;;;;1.61;44.02;92712.91;5037116;28;20097;-80
2023/01/11 06:23:02;;;;;;;1.98;0.77;;;;;;;1.61;43.79;92712.13;5037496;28;20041;-79
2023/01/11 06:25:29;;;;;;;0.82;0.80;;;;;;;1.58;44.35;92712.56;5039135;28;20033;-79
2023/01/11 06:27:55;;;;;;;0.90;0.90;;;;;;;1.56;44.03;92714.59;5041370;28;20043;-80
2023/01/11 06:30:24;;;;;;;1.00;0.90;;;;;;;1.55;44.68;92713.00;5040011;28;20049;-79
2023/01/11 06:32:51;;;;;;;0.70;0.70;;;;;;;1.56;44.09;92712.00;5041139;28;20061;-82
2023/01/11 06:35:16;;;;;;;0.60;0.60;;;;;;;1.55;44.08;92724.09;5040377;28;20048;-82
2023/01/11 06:37:42;;;;;;;0.80;0.80;;;;;;;1.55;43.55;92718.94;5040158;28;20500;-79
2023/01/11 06:40:08;;;;;;;1.60;0.98;;;;;;;1.57;43.73;92713.56;5039896;28;20037;-80
2023/01/11 06:42:34;;;;;;;1.10;0.88;;;;;;;1.58;44.74;92708.19;5039853;28;20041;-80
2023/01/11 06:44:59;;;;;;;1.08;0.70;;;;;;;1.59;44.66;92699.44;5038952;28;20040;-80
2023/01/11 06:47:25;;;;;;;0.60;0.60;;;;;;;1.64;43.97;92693.59;5036177;28;20057;-80
2023/01/11 06:49:52;;;;;;;0.88;0.70;;;;;;;1.66;43.88;92694.16;5039040;28;20068;-80
2023/01/11 06:52:17;;;;;;;0.85;0.60;;;;;;;1.72;42.95;92702.81;5037218;28;20033;-78
2023/01/11 06:54:43;;;;;;;1.45;0.80;;;;;;;2.05;41.18;92705.56;5036032;28;20503;-77
2023/01/11 06:57:08;;;;;;;2.67;1.10;;;;;;;2.46;40.31;92700.38;5034843;28;20120;-78
2023/01/11 06:59:34;;;;;;;0.98;0.88;;;;;;;2.40;41.37;92701.28;5036311;28;20041;-78
2023/01/11 07:01:59;;;;;;;0.73;0.63;;;;;;;2.32;42.09;92706.81;5036160;28;20034;-79
2023/01/11 07:04:25;;;;;;;0.80;0.65;;;;;;;2.22;42.88;92708.19;5036837;28;20041;-78
2023/01/11 07:06:53;;;;;;;0.90;0.90;;;;;;;2.13;42.72;92704.41;5035886;28;20117;-78
2023/01/11 07:09:19;;;;;;;0.70;0.70;;;;;;;2.07;43.06;92707.88;5037280;28;20132;-78
2023/01/11 07:11:45;;;;;;;0.57;0.57;;;;;;;2.07;43.08;92707.88;5035617;28;20040;-78
2023/01/11 07:14:13;;;;;;;1.48;0.70;;;;;;;2.04;43.59;92711.72;5036792;28;20041;-78
2023/01/11 07:16:40;;;;;;;0.82;0.80;;;;;;;2.03;43.94;92710.16;5017423;28;20636;-79
2023/01/11 07:19:05;;;;;;;0.82;0.73;;;;;;;2.03;44.07;92711.97;5016748;28;20038;-78
2023/01/11 07:21:31;;;;;;;0.77;0.68;;;;;;;2.15;41.64;92714.50;5017202;28;20111;-78
2023/01/11 07:23:57;;;;;;;1.50;0.90;;;;;;;2.38;41.46;92704.09;5015854;28;20352;-78
2023/01/11 07:26:25;;;;;;;1.33;0.90;;;;;;;2.45;41.71;92714.28;5015929;28;20041;-78
2023/01/11 07:28:50;;;;;;;1.05;0.80;;;;;;;2.46;41.81;92718.47;5032213;28;20514;-78
2023/01/11 07:31:16;;;;;;;0.95;0.82;;;;;;;2.45;41.93;92725.41;5018332;28;20038;-79
2023/01/11 07:33:41;;;;;;;2.28;0.77;;;;;;;2.43;42.02;92735.22;5030349;28;20033;-79
2023/01/11 07:36:07;;;;;;;0.70;0.70;;;;;;;2.42;42.56;92732.84;5029250;28;20041;-79
2023/01/11 07:38:33;;;;;;;0.75;0.75;;;;;;;2.39;43.23;92733.31;5023969;28;20046;-79
2023/01/11 07:40:59;;;;;;;4.88;1.80;;;;;;;2.38;43.53;92739.50;5016875;28;20030;-79
2023/01/11 07:43:25;;;;;;;4.55;2.13;;;;;;;2.36;43.92;92739.72;5031956;28;20049;-79
2023/01/11 07:45:51;;;;;;;8.98;4.65;;;;;;;2.35;44.91;92740.75;5016719;28;20042;-78
2023/01/11 07:48:25;;;;;;;14.93;7.47;;;;;;;2.37;44.81;92751.63;5015214;28;20574;-79
2023/01/11 07:50:52;;;;;;;6.50;3.45;;;;;;;2.40;43.93;92755.56;5016914;28;20050;-79
2023/01/11 07:53:17;;;;;;;5.95;3.00;;;;;;;2.43;44.35;92755.09;5015443;28;20449;-78
2023/01/11 07:55:44;;;;;;;4.43;2.22;;;;;;;2.41;45.21;92746.78;5015395;28;20049;-78
2023/01/11 07:58:11;;;;;;;4.28;2.30;;;;;;;2.45;45.21;92747.88;5017001;28;20033;-78
2023/01/11 08:00:37;;;;;;;3.13;1.73;;;;;;;2.46;45.76;92750.25;4999071;28;20038;-78
2023/01/11 08:03:03;;;;;;;2.95;1.60;;;;;;;2.49;45.35;92761.94;5015561;28;20045;-78
2023/01/11 08:05:28;;;;;;;3.15;1.73;;;;;;;2.50;45.91;92756.53;5015860;28;20100;-79
2023/01/11 08:07:54;;;;;;;2.13;1.20;;;;;;;2.55;45.91;92758.44;5017534;28;20080;-78
2023/01/11 08:10:20;;;;;;;3.88;2.33;;;;;;;2.60;45.52;92758.53;5016059;28;20033;-79
2023/01/11 08:15:32;;;;;;;5.13;2.28;;;;;;;2.70;45.60;92761.31;5016159;28;20381;-79
2023/01/11 08:17:58;;;;;;;2.33;1.50;;;;;;;2.76;46.22;92761.38;5016756;28;20049;-79
2023/01/11 08:20:25;;;;;;;5.90;1.30;;;;;;;2.84;46.59;92761.03;5016656;28;20025;-78
2023/01/11 08:22:52;;;;;;;3.83;1.00;;;;;;;2.88;46.03;92751.78;5015981;28;20068;-78
2023/01/11 08:25:18;;;;;;;4.15;1.33;;;;;;;3.01;45.77;92767.00;5017368;28;20404;-78
2023/01/11 08:27:43;;;;;;;2.00;0.93;;;;;;;3.11;45.76;92774.16;5018355;28;20028;-78
2023/01/11 08:30:10;;;;;;;4.45;1.20;;;;;;;3.23;45.36;92768.94;5021343;28;20049;-79
2023/01/11 08:32:35;;;;;;;2.45;1.05;;;;;;;3.38;45.40;92766.59;5021312;28;20045;-77
2023/01/11 08:35:01;;;;;;;0.90;0.90;;;;;;;3.62;44.04;92767.22;5020330;28;20476;-78
2023/01/11 08:37:26;;;;;;;2.40;1.02;;;;;;;3.90;44.12;92774.09;5036690;28;20448;-78
2023/01/11 08:39:54;;;;;;;4.43;0.95;;;;;;;4.10;43.61;92783.19;5017547;28;20044;-78
2023/01/11 08:42:20;;;;;;;1.65;0.80;;;;;;;4.19;42.78;92776.56;5015520;28;20038;-78
2023/01/11 08:44:45;;;;;;;1.95;0.65;;;;;;;4.27;42.62;92781.31;5019114;28;20033;-80
2023/01/11 08:47:11;;;;;;;0.75;0.70;;;;;;;4.34;42.83;92789.69;5020936;28;20111;-80
2023/01/11 08:49:37;;;;;;;2.13;1.30;;;;;;;4.39;41.80;92791.59;5022911;28;20060;-80
2023/01/11 08:52:02;;;;;;;0.70;0.70;;;;;;;4.47;40.44;92788.56;5024186;28;20042;-80
2023/01/11 08:54:28;;;;;;;0.93;0.80;;;;;;;4.54;41.61;92791.00;5023093;28;20060;-80
2023/01/11 08:56:54;;;;;;;1.23;0.73;;;;;;;4.62;42.93;92795.75;5021055;28;20030;-80
2023/01/11 08:59:21;;;;;;;0.85;0.80;;;;;;;4.67;42.50;92801.00;5023238;28;20048;-81
2023/01/11 09:01:46;;;;;;;1.95;1.02;;;;;;;4.85;42.26;92801.72;5021677;28;20045;-80
2023/01/11 09:04:12;;;;;;;1.42;0.90;;;;;;;5.03;40.40;92798.03;5019731;28;20034;-78
2023/01/11 09:06:38;;;;;;;1.25;0.80;;;;;;;5.11;40.21;92798.38;5016588;28;20354;-77
2023/01/11 09:09:03;;;;;;;1.52;0.98;;;;;;;5.17;39.92;92797.38;5016414;28;20042;-78
2023/01/11 09:14:13;;;;;;;12.27;5.70;;;;;;;5.26;41.87;92795.13;5016842;28;20041;-78
2023/01/11 09:16:38;;;;;;;5.65;2.53;;;;;;;5.26;41.47;92781.38;5016257;28;20041;-78
2023/01/11 09:19:04;;;;;;;2.97;1.40;;;;;;;5.39;39.44;92799.16;5015318;28;20488;-77
2023/01/11 09:21:30;;;;;;;2.05;1.00;;;;;;;5.47;41.67;92795.31;5028454;28;20037;-79
2023/01/11 09:23:56;;;;;;;2.20;1.08;;;;;;;5.56;41.40;92793.81;5035980;28;20029;-79
2023/01/11 09:26:21;;;;;;;1.77;1.10;;;;;;;5.64;41.05;92796.75;5034966;28;20045;-78
2023/01/11 09:28:47;;;;;;;2.65;1.20;;;;;;;5.73;40.96;92804.09;5034749;28;20479;-78
2023/01/11 09:31:12;;;;;;;2.83;1.20;;;;;;;5.77;40.71;92805.19;5036408;28;20021;-78
2023/01/11 09:33:38;;;;;;;2.15;1.10;;;;;;;5.69;41.09;92803.03;5034747;28;20530;-78
2023/01/11 09:36:04;;;;;;;3.83;1.08;;;;;;;5.68;42.02;92809.28;5036474;28;20127;-77
2023/01/11 09:38:32;;;;;;;0.93;0.77;;;;;;;5.63;37.23;92818.59;5034746;28;20040;-78
2023/01/11 09:41:07;;;;;;;1.70;1.00;;;;;;;5.60;35.95;92818.28;5036020;28;20041;-78
2023/01/11 09:43:40;;;;;;;0.77;0.77;;;;;;;5.57;35.58;92798.78;5035178;28;20037;-79
2023/01/11 09:46:07;;;;;;;2.08;0.70;;;;;;;5.53;35.56;92789.13;5035343;28;20403;-78
2023/01/11 09:48:53;;;;;;;0.80;0.80;;;;;;;5.54;35.21;92801.88;5035712;28;20113;-78
2023/01/11 09:51:23;;;;;;;1.25;0.80;;;;;;;5.59;34.81;92798.53;5035699;28;20035;-78
2023/01/11 09:53:51;;;;;;;1.40;1.10;;;;;;;5.64;36.14;92794.16;5035281;28;20025;-78
2023/01/11 09:56:24;;;;;;;1.05;0.80;;;;;;;5.67;37.75;92790.28;5038710;28;20041;-78
2023/01/11 09:59:05;;;;;;;1.38;0.80;;;;;;;5.77;36.19;92784.41;5036027;28;20044;-78
2023/01/11 10:01:56;;;;;;;1.60;1.02;;;;;;;5.78;34.62;92785.94;5036719;28;20095;-78
2023/01/11 10:04:50;;;;;;;4.72;1.08;;;;;;;5.80;36.55;92781.28;5035753;28;20503;-79
2023/01/11 10:07:41;;;;;;;2.38;1.10;;;;;;;5.87;35.94;92786.28;5040545;28;20037;-79
2023/01/11 10:10:47;;;;;;;2.17;1.30;;;;;;;5.83;36.53;92780.78;5042145;28;20029;-81
2023/01/11 10:13:24;;;;;;;1.95;0.90;;;;;;;5.84;37.10;92783.16;5041236;28;20029;-79
2023/01/11 10:16:25;;;;;;;6.85;2.42;;;;;;;5.86;36.19;92772.50;5038665;28;20056;-80
2023/01/11 10:19:15;;;;;;;7.35;2.70;;;;;;;5.80;35.94;92776.09;5040367;28;20033;-80
2023/01/11 10:22:00;;;;;;;4.63;1.92;;;;;;;5.80;35.90;92774.28;5040775;28;20025;-80
2023/01/11 10:24:29;;;;;;;4.35;2.10;;;;;;;5.95;36.16;92784.03;5040114;28;20039;-81
2023/01/11 10:27:02;;;;;;;8.07;2.10;;;;;;;5.97;37.29;92783.78;5041593;28;20072;-80
2023/01/11 10:29:56;;;;;;;4.30;1.70;;;;;;;5.95;37.15;92786.63;5041596;28;20056;-81
2023/01/11 10:32:52;;;;;;;4.78;1.90;;;;;;;6.01;39.69;92787.44;5039750;28;20064;-81
2023/01/11 10:41:18;;;;;;;5.43;1.63;;;;;;;6.57;37.29;92789.56;5041059;28;20296;-79
2023/01/11 10:43:53;;;;;;;2.10;1.20;;;;;;;6.64;35.09;92795.31;5040965;28;20041;-80
2023/01/11 10:46:23;;;;;;;2.38;1.20;;;;;;;6.64;35.27;92785.72;5039435;28;20033;-80
2023/01/11 10:49:02;;;;;;;2.35;1.30;;;;;;;6.74;36.24;92782.38;5040479;28;20461;-79
2023/01/11 10:51:39;;;;;;;2.30;1.23;;;;;;;6.76;35.68;92777.69;5039503;28;20068;-79
2023/01/11 10:54:15;;;;;;;5.97;1.40;;;;;;;6.80;35.83;92781.34;5040947;28;20444;-80
2023/01/11 10:57:07;;;;;;;2.15;1.00;;;;;;;6.95;34.50;92779.81;5040363;28;20145;-80
2023/01/11 10:59:42;;;;;;;;;;;;;;;6.88;32.52;92773.03;5040734;28;20088;-80
2023/01/11 11:02:32;;;;;;;1.08;0.70;;;;;;;6.91;31.75;92760.56;5038876;28;19944;-79
2023/01/11 11:05:24;;;;;;;1.67;1.00;;;;;;;6.87;33.33;92762.91;5037506;28;20045;-80
2023/01/11 11:08:00;;;;;;;1.83;1.20;;;;;;;7.03;32.11;92748.88;5039648;28;20505;-80
2023/01/11 11:10:41;;;;;;;0.93;0.80;;;;;;;7.27;32.02;92757.00;5040637;28;20284;-80
2023/01/11 11:13:25;;;;;;;1.20;1.08;;;;;;;7.47;32.29;92748.41;5039909;28;20249;-80
2023/01/11 11:16:01;;;;;;;1.48;1.05;;;;;;;7.90;31.80;92740.31;5027955;28;20033;-80
2023/01/11 11:18:27;;;;;;;1.25;0.90;;;;;;;8.09;30.40;92743.94;5020542;28;20030;-80
2023/01/11 11:20:52;;;;;;;1.13;0.80;;;;;;;8.31;30.38;92745.47;5018331;28;20034;-80
2023/01/11 11:23:23;;;;;;;1.73;1.00;;;;;;;8.43;30.16;92732.16;5021112;28;20484;-80
2023/01/11 11:25:57;;;;;;;1.95;1.10;;;;;;;8.23;30.93;92731.13;5020881;28;20056;-80
2023/01/11 11:28:27;;;;;;;2.22;1.10;;;;;;;8.29;29.81;92724.84;5021172;28;20045;-80
2023/01/11 11:31:06;;;;;;;2.08;0.98;;;;;;;8.29;30.12;92718.84;5020022;28;20030;-79
2023/01/11 11:33:35;;;;;;;2.20;1.08;;;;;;;8.10;30.89;92722.03;5020212;28;20193;-80
2023/01/11 11:36:09;;;;;;;1.52;0.93;;;;;;;8.10;31.14;92721.25;5002436;28;20087;-80
2023/01/11 11:38:37;;;;;;;2.38;1.10;;;;;;;8.03;30.87;92724.13;5019609;28;20064;-79
2023/01/11 11:41:08;;;;;;;1.83;1.10;;;;;;;7.86;31.80;92713.22;5019560;28;20034;-80
2023/01/11 11:43:38;;;;;;;2.72;1.30;;;;;;;7.83;32.95;92713.72;5025737;28;20029;-80
2023/01/11 11:46:22;;;;;;;1.95;0.98;;;;;;;7.92;32.89;92722.56;5022947;28;20037;-80
2023/01/11 11:49:15;;;;;;;3.03;1.30;;;;;;;7.66;32.39;92720.00;5049025;28;20029;-79
2023/01/11 11:51:44;;;;;;;2.40;1.33;;;;;;;7.59;33.12;92711.69;5052056;28;20041;-79
2023/01/11 11:54:29;;;;;;;2.45;1.30;;;;;;;7.60;32.96;92705.41;5050337;28;20051;-80
2023/01/11 11:56:57;;;;;;;1.75;1.17;;;;;;;7.71;32.99;92703.59;5041171;28;20056;-80
2023/01/11 11:59:28;;;;;;;2.35;1.50;;;;;;;7.80;31.45;92688.22;5040948;28;20037;-80
2023/01/11 12:01:59;;;;;;;1.30;0.93;;;;;;;7.94;32.23;92691.81;5042167;28;20093;-80
2023/01/11 12:04:31;;;;;;;1.75;1.00;;;;;;;7.89;31.74;92689.22;5043868;28;20037;-80
2023/01/11 12:07:13;;;;;;;2.20;1.10;;;;;;;8.00;31.97;92693.38;5042825;28;20029;-80
2023/01/11 12:09:45;;;;;;;1.23;1.10;;;;;;;7.74;31.81;92686.66;5043400;28;20069;-80
2023/01/11 12:12:19;;;;;;;1.75;1.10;;;;;;;7.72;31.88;92682.50;5044391;28;20057;-80
2023/01/11 12:15:16;;;;;;;1.73;0.95;;;;;;;7.72;31.86;92692.13;5043878;28;20036;-80
2023/01/11 12:17:42;;;;;;;24.52;13.30;;;;;;;7.57;32.33;92682.50;5043570;28;20043;-80
2023/01/11 12:20:22;;;;;;;3.80;2.08;;;;;;;7.45;32.59;92687.19;5043985;28;20037;-80
2023/01/11 12:23:16;;;;;;;1.63;1.00;;;;;;;7.35;32.16;92682.78;5044161;28;20025;-80
2023/01/11 12:25:55;;;;;;;2.50;1.20;;;;;;;7.34;31.20;92685.63;5044388;28;20040;-80
2023/01/11 12:29:02;;;;;;;4.45;2.05;;;;;;;7.50;32.92;92684.59;5043406;28;20029;-81
2023/01/11 12:31:43;;;;;;;3.25;1.50;;;;;;;7.79;34.15;92684.81;5039041;28;20065;-79